Time;durP1;ratioP1;P1;durP2;ratioP2;P2;SDS_P1;SDS_P2;PMS_P1;PMS_P2;Temp;Humidity;BMP_temperature;BMP_pressure;BME280_temperature;BME280_humidity;BME280_pressure;Samples;Min_cycle;Max_cycle;Signal;HPM_P1;HPM_P2
2022/12/19 00:01:00;;;;;;;17.57;11.10;;;;;;;;;;4965270;28;21158;-58
2022/12/19 00:03:26;;;;;;;17.67;10.27;;;;;;;;;;4943670;28;20408;-58
2022/12/19 00:05:52;;;;;;;16.67;10.90;;;;;;;;;;4964520;28;20518;-59
2022/12/19 00:08:18;;;;;;;17.37;10.63;;;;;;;;;;4960200;28;20431;-57
2022/12/19 00:10:53;;;;;;;15.77;10.70;;;;;;;;;;4946048;28;20455;-57
2022/12/19 00:13:19;;;;;;;16.87;11.27;;;;;;;;;;4936513;28;20970;-58
2022/12/19 00:15:45;;;;;;;18.97;10.87;;;;;;;;;;4961429;28;20439;-59
2022/12/19 00:18:11;;;;;;;18.57;11.87;;;;;;;;;;4964438;28;20462;-59
2022/12/19 00:20:37;;;;;;;15.97;10.63;;;;;;;;;;4964734;28;20494;-58
2022/12/19 00:23:03;;;;;;;16.60;10.43;;;;;;;;;;4963139;28;20431;-58
2022/12/19 00:25:29;;;;;;;15.73;11.03;;;;;;;;;;4967502;28;20438;-58
2022/12/19 00:27:56;;;;;;;19.07;11.70;;;;;;;;;;4967368;28;20461;-58
2022/12/19 00:30:22;;;;;;;17.10;11.70;;;;;;;;;;4969065;28;20482;-58
2022/12/19 00:32:48;;;;;;;15.57;10.53;;;;;;;;;;4949102;28;20443;-59
2022/12/19 00:35:14;;;;;;;19.60;10.67;;;;;;;;;;4945480;28;20439;-59
2022/12/19 00:37:40;;;;;;;16.87;10.90;;;;;;;;;;4964632;28;20443;-58
2022/12/19 00:40:06;;;;;;;18.03;10.17;;;;;;;;;;4967173;28;20530;-58
2022/12/19 00:42:32;;;;;;;15.30;10.17;;;;;;;;;;4966260;28;20450;-58
2022/12/19 00:44:58;;;;;;;15.73;10.53;;;;;;;;;;4948584;28;20497;-59
2022/12/19 00:47:24;;;;;;;16.20;10.30;;;;;;;;;;4967644;28;20439;-58
2022/12/19 00:49:50;;;;;;;17.63;10.27;;;;;;;;;;4966379;28;20475;-58
2022/12/19 00:52:16;;;;;;;15.93;10.60;;;;;;;;;;4965613;28;20811;-58
2022/12/19 00:54:42;;;;;;;18.07;11.50;;;;;;;;;;4968762;28;20934;-59
2022/12/19 00:57:08;;;;;;;16.47;10.97;;;;;;;;;;4948401;28;20451;-59
2022/12/19 00:59:34;;;;;;;18.17;11.47;;;;;;;;;;4967788;28;20450;-59
2022/12/19 01:02:00;;;;;;;18.27;11.17;;;;;;;;;;4966563;28;20439;-58
2022/12/19 01:04:26;;;;;;;16.60;11.30;;;;;;;;;;4967417;28;21184;-59
2022/12/19 01:06:53;;;;;;;18.30;11.07;;;;;;;;;;4963125;28;20446;-58
2022/12/19 01:09:21;;;;;;;17.33;11.67;;;;;;;;;;4959284;28;20477;-59
2022/12/19 01:14:32;;;;;;;17.60;11.20;;;;;;;;;;4965170;28;20437;-59
2022/12/19 01:16:58;;;;;;;14.33;10.07;;;;;;;;;;4966738;28;20443;-59
2022/12/19 01:19:25;;;;;;;19.10;12.03;;;;;;;;;;4945345;28;20464;-58
2022/12/19 01:21:51;;;;;;;17.47;10.27;;;;;;;;;;4964864;28;20797;-59
2022/12/19 01:24:17;;;;;;;18.40;11.00;;;;;;;;;;4966481;28;20446;-58
2022/12/19 01:26:43;;;;;;;19.03;11.80;;;;;;;;;;4966153;28;20447;-58
2022/12/19 01:29:09;;;;;;;17.33;10.53;;;;;;;;;;4965973;28;20486;-60
2022/12/19 01:31:35;;;;;;;20.67;12.33;;;;;;;;;;4966810;28;20925;-58
2022/12/19 01:34:01;;;;;;;17.43;10.60;;;;;;;;;;4966283;28;21104;-59
2022/12/19 01:36:28;;;;;;;18.87;11.40;;;;;;;;;;4965800;28;20950;-60
2022/12/19 01:39:00;;;;;;;16.80;11.80;;;;;;;;;;4966753;28;20652;-58
2022/12/19 01:41:26;;;;;;;15.40;11.23;;;;;;;;;;4967053;28;20791;-58
2022/12/19 01:44:00;;;;;;;16.87;11.00;;;;;;;;;;4965471;28;20439;-59
2022/12/19 01:46:46;;;;;;;18.40;11.20;;;;;;;;;;4967739;28;20926;-58
2022/12/19 01:49:15;;;;;;;19.20;10.30;;;;;;;;;;4950553;28;20546;-59
2022/12/19 01:51:42;;;;;;;16.80;10.67;;;;;;;;;;4961994;28;20680;-59
2022/12/19 01:54:10;;;;;;;19.93;11.57;;;;;;;;;;4962728;28;20930;-60
2022/12/19 01:56:42;;;;;;;17.20;10.27;;;;;;;;;;4943268;28;20981;-60
2022/12/19 01:59:11;;;;;;;14.37;9.53;;;;;;;;;;4963559;28;20432;-60
2022/12/19 02:01:39;;;;;;;15.37;11.00;;;;;;;;;;4963239;28;20652;-59
2022/12/19 02:04:05;;;;;;;18.60;11.63;;;;;;;;;;4963422;28;20498;-60
2022/12/19 02:06:33;;;;;;;19.20;10.27;;;;;;;;;;4960976;28;20525;-59
2022/12/19 02:09:00;;;;;;;16.37;11.20;;;;;;;;;;4966438;28;20798;-59
2022/12/19 02:11:26;;;;;;;18.80;11.43;;;;;;;;;;4964790;28;21132;-59
2022/12/19 02:13:52;;;;;;;16.93;10.40;;;;;;;;;;4965767;28;20431;-59
2022/12/19 02:16:37;;;;;;;15.90;10.63;;;;;;;;;;4964823;28;20481;-59
2022/12/19 02:19:19;;;;;;;16.27;11.57;;;;;;;;;;4966077;28;20459;-60
2022/12/19 02:21:51;;;;;;;14.53;10.30;;;;;;;;;;4961848;28;20981;-60
2022/12/19 02:24:36;;;;;;;16.07;11.13;;;;;;;;;;4967031;28;20816;-59
2022/12/19 02:27:17;;;;;;;14.13;10.60;;;;;;;;;;4957011;28;20953;-60
2022/12/19 02:30:04;;;;;;;16.97;9.60;;;;;;;;;;4963045;28;20486;-60
2022/12/19 02:32:47;;;;;;;16.17;10.33;;;;;;;;;;4965705;28;20443;-60
2022/12/19 02:35:26;;;;;;;17.53;11.03;;;;;;;;;;4965445;28;20441;-60
2022/12/19 02:37:56;;;;;;;19.40;10.97;;;;;;;;;;4938628;28;20446;-59
2022/12/19 02:40:28;;;;;;;14.80;10.87;;;;;;;;;;4961649;28;20435;-59
2022/12/19 02:42:58;;;;;;;15.50;10.43;;;;;;;;;;4966246;28;20559;-60
2022/12/19 02:45:28;;;;;;;17.90;11.60;;;;;;;;;;4934770;28;20841;-59
2022/12/19 02:47:54;;;;;;;14.37;10.60;;;;;;;;;;4961411;28;20435;-61
2022/12/19 02:50:20;;;;;;;20.67;10.97;;;;;;;;;;4946281;28;20994;-60
2022/12/19 02:52:47;;;;;;;15.23;9.97;;;;;;;;;;4967623;28;20928;-60
2022/12/19 02:55:15;;;;;;;18.30;11.27;;;;;;;;;;4938335;28;21046;-60
2022/12/19 02:57:47;;;;;;;17.10;11.17;;;;;;;;;;4965711;28;20840;-60
2022/12/19 03:00:18;;;;;;;18.10;10.63;;;;;;;;;;4948065;28;20539;-59
2022/12/19 03:03:03;;;;;;;16.73;10.37;;;;;;;;;;4964013;28;20451;-59
2022/12/19 03:05:32;;;;;;;16.83;10.97;;;;;;;;;;4965368;28;20435;-60
2022/12/19 03:08:04;;;;;;;15.47;10.90;;;;;;;;;;4965116;28;20546;-59
2022/12/19 03:10:45;;;;;;;16.93;11.07;;;;;;;;;;4963890;28;21204;-59
2022/12/19 03:13:14;;;;;;;16.43;10.73;;;;;;;;;;4963869;28;20466;-59
2022/12/19 03:15:40;;;;;;;15.80;10.63;;;;;;;;;;4961462;28;20454;-59
2022/12/19 03:18:06;;;;;;;18.50;11.23;;;;;;;;;;4964916;28;20493;-59
2022/12/19 03:20:47;;;;;;;16.13;11.27;;;;;;;;;;4946711;28;20423;-59
2022/12/19 03:23:14;;;;;;;16.90;11.37;;;;;;;;;;4965659;28;20929;-59
2022/12/19 03:25:42;;;;;;;16.33;11.03;;;;;;;;;;4946120;28;20736;-59
2022/12/19 03:28:17;;;;;;;17.37;10.70;;;;;;;;;;4965092;28;20509;-59
2022/12/19 03:30:44;;;;;;;17.80;11.30;;;;;;;;;;4962031;28;20498;-59
2022/12/19 03:33:11;;;;;;;16.33;10.77;;;;;;;;;;4966004;28;20953;-59
2022/12/19 03:35:38;;;;;;;14.80;10.57;;;;;;;;;;4964897;28;20434;-59
2022/12/19 03:38:05;;;;;;;18.27;11.30;;;;;;;;;;4945053;28;20517;-59
2022/12/19 03:40:35;;;;;;;18.97;12.30;;;;;;;;;;4946897;28;20454;-59
2022/12/19 03:43:10;;;;;;;18.47;12.07;;;;;;;;;;4965395;28;20435;-59
2022/12/19 03:45:40;;;;;;;15.57;10.23;;;;;;;;;;4964351;28;20451;-59
2022/12/19 03:48:14;;;;;;;18.53;11.97;;;;;;;;;;4964677;28;20501;-60
2022/12/19 03:50:46;;;;;;;16.67;10.83;;;;;;;;;;4964940;28;20482;-59
2022/12/19 03:53:12;;;;;;;16.17;11.17;;;;;;;;;;4962588;28;20431;-59
2022/12/19 03:55:42;;;;;;;20.73;12.83;;;;;;;;;;4964753;28;20430;-59
2022/12/19 03:58:18;;;;;;;17.80;12.50;;;;;;;;;;4967425;28;20497;-59
2022/12/19 04:00:46;;;;;;;18.33;11.73;;;;;;;;;;4966228;28;20995;-59
2022/12/19 04:03:13;;;;;;;16.97;11.13;;;;;;;;;;4963398;28;20983;-60
2022/12/19 04:05:40;;;;;;;16.93;12.53;;;;;;;;;;4965291;28;20798;-59
2022/12/19 04:08:07;;;;;;;19.47;12.50;;;;;;;;;;4964679;28;20438;-60
2022/12/19 04:10:36;;;;;;;18.90;12.43;;;;;;;;;;4966811;28;20467;-59
2022/12/19 04:13:10;;;;;;;18.03;12.00;;;;;;;;;;4968085;28;20496;-59
2022/12/19 04:15:49;;;;;;;15.20;11.23;;;;;;;;;;4965705;28;20430;-59
2022/12/19 04:18:15;;;;;;;19.10;12.10;;;;;;;;;;4966938;28;20569;-60
2022/12/19 04:20:44;;;;;;;19.40;11.63;;;;;;;;;;4963264;28;20447;-59
2022/12/19 04:23:16;;;;;;;20.10;12.30;;;;;;;;;;4966198;28;20430;-60
2022/12/19 04:25:44;;;;;;;17.67;11.40;;;;;;;;;;4966236;28;20457;-60
2022/12/19 04:28:16;;;;;;;17.03;11.43;;;;;;;;;;4964971;28;20486;-59
2022/12/19 04:30:44;;;;;;;21.73;13.13;;;;;;;;;;4961482;28;20965;-60
2022/12/19 04:33:10;;;;;;;16.63;11.60;;;;;;;;;;4965700;28;20427;-60
2022/12/19 04:35:36;;;;;;;17.63;11.97;;;;;;;;;;4963113;28;20439;-60
2022/12/19 04:38:02;;;;;;;20.80;11.73;;;;;;;;;;4963722;28;20938;-60
2022/12/19 04:40:28;;;;;;;17.57;11.43;;;;;;;;;;4945435;28;20546;-60
2022/12/19 04:42:54;;;;;;;15.17;11.13;;;;;;;;;;4964462;28;20473;-60
2022/12/19 04:45:20;;;;;;;18.13;11.47;;;;;;;;;;4966408;28;20435;-60
2022/12/19 04:47:46;;;;;;;17.17;11.50;;;;;;;;;;4967195;28;20445;-60
2022/12/19 04:50:12;;;;;;;15.70;11.03;;;;;;;;;;4966707;28;20470;-60
2022/12/19 04:52:38;;;;;;;19.90;12.03;;;;;;;;;;4965325;28;20462;-60
2022/12/19 04:55:04;;;;;;;15.87;10.57;;;;;;;;;;4965733;28;20431;-60
2022/12/19 04:57:31;;;;;;;23.00;11.97;;;;;;;;;;4965963;28;20431;-60
2022/12/19 04:59:57;;;;;;;17.77;10.90;;;;;;;;;;4964855;28;20470;-61
2022/12/19 05:02:23;;;;;;;17.20;11.43;;;;;;;;;;4965629;28;20439;-60
2022/12/19 05:04:49;;;;;;;16.53;11.00;;;;;;;;;;4967973;28;20423;-60
2022/12/19 05:07:21;;;;;;;21.43;13.03;;;;;;;;;;4962220;28;20434;-60
2022/12/19 05:09:47;;;;;;;16.30;11.07;;;;;;;;;;4966632;28;20471;-61
2022/12/19 05:12:14;;;;;;;15.87;10.87;;;;;;;;;;4963305;28;21008;-61
2022/12/19 05:14:40;;;;;;;17.23;11.20;;;;;;;;;;4948362;28;20443;-60
2022/12/19 05:17:06;;;;;;;17.10;11.43;;;;;;;;;;4965963;28;20431;-61
2022/12/19 05:19:32;;;;;;;18.40;11.30;;;;;;;;;;4950528;28;20455;-61
2022/12/19 05:21:58;;;;;;;17.17;11.40;;;;;;;;;;4962198;28;21000;-61
2022/12/19 05:24:24;;;;;;;21.40;12.33;;;;;;;;;;4945928;28;20478;-60
2022/12/19 05:26:50;;;;;;;18.50;11.10;;;;;;;;;;4965223;28;20440;-60
2022/12/19 05:29:17;;;;;;;17.03;10.67;;;;;;;;;;4950280;28;20248;-60
2022/12/19 05:31:43;;;;;;;18.50;11.20;;;;;;;;;;4935427;28;21059;-60
2022/12/19 05:34:09;;;;;;;18.03;11.70;;;;;;;;;;4966334;28;20442;-61
2022/12/19 05:36:35;;;;;;;17.63;10.90;;;;;;;;;;4962990;28;20443;-61
2022/12/19 05:39:01;;;;;;;17.93;10.73;;;;;;;;;;4967186;28;20435;-60
2022/12/19 05:41:27;;;;;;;17.70;11.07;;;;;;;;;;4966264;28;20952;-60
2022/12/19 05:43:54;;;;;;;20.07;11.50;;;;;;;;;;4948896;28;20427;-60
2022/12/19 05:46:20;;;;;;;17.97;10.93;;;;;;;;;;4966532;28;20638;-60
2022/12/19 05:48:59;;;;;;;15.53;10.97;;;;;;;;;;4946334;28;20974;-60
2022/12/19 05:51:25;;;;;;;14.93;10.63;;;;;;;;;;4961390;28;20435;-60
2022/12/19 05:53:51;;;;;;;17.07;11.13;;;;;;;;;;4961771;28;20945;-60
2022/12/19 05:56:18;;;;;;;15.57;10.40;;;;;;;;;;4966650;28;20932;-60
2022/12/19 05:58:45;;;;;;;18.03;10.97;;;;;;;;;;4964426;28;20477;-60
2022/12/19 06:01:12;;;;;;;18.67;11.63;;;;;;;;;;4962955;28;20837;-59
2022/12/19 06:03:38;;;;;;;19.30;11.20;;;;;;;;;;4965835;28;20989;-60
2022/12/19 06:06:05;;;;;;;16.57;9.93;;;;;;;;;;4947775;28;20592;-58
2022/12/19 06:08:32;;;;;;;15.70;9.43;;;;;;;;;;4962425;28;20582;-58
2022/12/19 06:10:59;;;;;;;14.80;10.33;;;;;;;;;;4962273;28;20606;-58
2022/12/19 06:13:25;;;;;;;21.00;11.97;;;;;;;;;;4967841;28;20545;-58
2022/12/19 06:15:56;;;;;;;16.17;10.47;;;;;;;;;;4965977;28;20832;-58
2022/12/19 06:18:22;;;;;;;15.30;10.83;;;;;;;;;;4965697;28;20493;-58
2022/12/19 06:20:55;;;;;;;15.13;10.23;;;;;;;;;;4962437;28;20439;-57
2022/12/19 06:23:21;;;;;;;13.30;9.20;;;;;;;;;;4963922;28;20435;-58
2022/12/19 06:25:47;;;;;;;16.83;10.23;;;;;;;;;;4964810;28;20435;-58
2022/12/19 06:28:13;;;;;;;14.07;9.60;;;;;;;;;;4964495;28;20521;-58
2022/12/19 06:30:40;;;;;;;14.07;9.77;;;;;;;;;;4966182;28;20521;-58
2022/12/19 06:33:06;;;;;;;14.87;9.80;;;;;;;;;;4966253;28;20423;-58
2022/12/19 06:35:32;;;;;;;15.57;10.40;;;;;;;;;;4967887;28;20751;-58
2022/12/19 06:37:58;;;;;;;14.40;9.67;;;;;;;;;;4943870;28;20683;-58
2022/12/19 06:43:10;;;;;;;14.77;9.63;;;;;;;;;;4945591;28;20435;-58
2022/12/19 06:45:36;;;;;;;14.40;9.97;;;;;;;;;;4967641;28;20404;-58
2022/12/19 06:48:02;;;;;;;12.40;9.00;;;;;;;;;;4966335;28;20878;-59
2022/12/19 06:50:28;;;;;;;16.27;10.90;;;;;;;;;;4952485;28;20315;-58
2022/12/19 06:52:54;;;;;;;16.87;10.87;;;;;;;;;;4947317;28;20500;-58
2022/12/19 06:55:20;;;;;;;17.00;11.43;;;;;;;;;;4967107;28;20270;-58
2022/12/19 06:57:46;;;;;;;16.73;10.33;;;;;;;;;;4967040;28;20387;-58
2022/12/19 07:00:13;;;;;;;14.57;9.93;;;;;;;;;;4966758;28;20509;-58
2022/12/19 07:02:42;;;;;;;18.03;11.77;;;;;;;;;;4965094;28;20942;-58
2022/12/19 07:05:08;;;;;;;15.17;10.50;;;;;;;;;;4966954;28;20906;-58
2022/12/19 07:07:35;;;;;;;14.87;10.27;;;;;;;;;;4964113;28;20443;-58
2022/12/19 07:10:01;;;;;;;17.00;11.17;;;;;;;;;;4967295;28;20462;-58
2022/12/19 07:12:27;;;;;;;15.97;10.33;;;;;;;;;;4966406;28;20985;-58
2022/12/19 07:14:53;;;;;;;13.00;9.57;;;;;;;;;;4962032;28;21032;-58
2022/12/19 07:17:19;;;;;;;13.33;8.77;;;;;;;;;;4957311;28;20507;-58
2022/12/19 07:19:45;;;;;;;14.90;10.63;;;;;;;;;;4965247;28;20454;-58
2022/12/19 07:22:11;;;;;;;14.97;9.83;;;;;;;;;;4964445;28;21191;-58
2022/12/19 07:24:37;;;;;;;15.50;11.33;;;;;;;;;;4934168;28;20869;-58
2022/12/19 07:27:03;;;;;;;14.90;10.50;;;;;;;;;;4964522;28;20435;-57
2022/12/19 07:29:30;;;;;;;16.70;10.93;;;;;;;;;;4962874;28;20478;-57
2022/12/19 07:31:56;;;;;;;12.10;9.63;;;;;;;;;;4970783;28;20465;-58
2022/12/19 07:34:22;;;;;;;16.30;10.13;;;;;;;;;;4950561;28;20926;-57
2022/12/19 07:36:48;;;;;;;15.80;10.10;;;;;;;;;;4964849;28;20926;-58
2022/12/19 07:39:14;;;;;;;18.00;10.93;;;;;;;;;;4967258;28;20478;-58
2022/12/19 07:41:40;;;;;;;16.00;10.80;;;;;;;;;;4976855;28;20426;-58
2022/12/19 07:44:06;;;;;;;14.93;9.37;;;;;;;;;;4953330;28;20423;-58
2022/12/19 07:46:32;;;;;;;16.53;10.67;;;;;;;;;;4969765;28;20687;-58
2022/12/19 07:48:58;;;;;;;14.10;9.57;;;;;;;;;;4973442;28;20414;-58
2022/12/19 07:51:24;;;;;;;12.23;8.87;;;;;;;;;;4970210;28;20287;-58
2022/12/19 07:53:50;;;;;;;14.37;10.27;;;;;;;;;;4966062;28;20435;-58
2022/12/19 07:56:16;;;;;;;14.60;10.23;;;;;;;;;;4968830;28;20407;-58
2022/12/19 07:58:43;;;;;;;14.87;10.03;;;;;;;;;;4968753;28;20411;-58
2022/12/19 08:01:11;;;;;;;15.97;10.83;;;;;;;;;;4970591;28;20471;-58
2022/12/19 08:03:37;;;;;;;13.27;9.83;;;;;;;;;;4966593;28;20441;-57
2022/12/19 08:06:04;;;;;;;13.03;9.63;;;;;;;;;;4969634;28;20462;-58
2022/12/19 08:08:31;;;;;;;16.10;11.07;;;;;;;;;;4948628;28;20446;-60
2022/12/19 08:11:16;;;;;;;13.33;10.33;;;;;;;;;;4968589;28;20474;-61
2022/12/19 08:13:42;;;;;;;15.17;10.17;;;;;;;;;;4944422;28;20496;-60
2022/12/19 08:16:08;;;;;;;13.57;10.03;;;;;;;;;;4963039;28;20433;-60
2022/12/19 08:18:34;;;;;;;12.23;9.73;;;;;;;;;;4962940;28;20505;-60
2022/12/19 08:21:00;;;;;;;15.50;10.37;;;;;;;;;;4966584;28;20443;-58
2022/12/19 08:23:26;;;;;;;12.03;9.60;;;;;;;;;;4969239;28;20457;-58
2022/12/19 08:26:03;;;;;;;13.40;8.73;;;;;;;;;;4978749;28;20497;-58
2022/12/19 08:28:30;;;;;;;16.47;9.27;;;;;;;;;;4966197;28;20431;-58
2022/12/19 08:31:10;;;;;;;14.40;9.20;;;;;;;;;;4967085;28;20471;-57
2022/12/19 08:33:36;;;;;;;13.53;10.13;;;;;;;;;;4965379;28;20427;-58
2022/12/19 08:36:03;;;;;;;13.90;9.57;;;;;;;;;;4967122;28;20180;-57
2022/12/19 08:38:29;;;;;;;10.97;9.10;;;;;;;;;;4964648;28;20423;-57
2022/12/19 08:40:55;;;;;;;12.83;10.53;;;;;;;;;;4951775;28;20435;-58
2022/12/19 08:43:21;;;;;;;15.27;10.00;;;;;;;;;;4966677;28;20431;-57
2022/12/19 08:45:50;;;;;;;13.23;9.47;;;;;;;;;;4948595;28;20431;-58
2022/12/19 08:48:17;;;;;;;15.20;10.23;;;;;;;;;;4968999;28;20188;-57
2022/12/19 08:51:09;;;;;;;12.07;9.53;;;;;;;;;;4967916;28;20469;-58
2022/12/19 08:53:37;;;;;;;13.43;9.17;;;;;;;;;;4935889;28;20286;-57
2022/12/19 08:56:06;;;;;;;13.67;10.30;;;;;;;;;;4967362;28;20654;-58
2022/12/19 08:58:32;;;;;;;13.73;9.47;;;;;;;;;;4966381;28;20432;-58
2022/12/19 09:00:59;;;;;;;12.40;8.90;;;;;;;;;;4968362;28;20435;-58
2022/12/19 09:03:25;;;;;;;14.43;10.47;;;;;;;;;;4968066;28;20423;-58
2022/12/19 09:05:57;;;;;;;12.70;9.63;;;;;;;;;;4974691;28;20435;-57
2022/12/19 09:08:24;;;;;;;13.40;9.37;;;;;;;;;;4962976;28;20443;-58
2022/12/19 09:10:50;;;;;;;14.47;10.07;;;;;;;;;;4967812;28;20792;-58
2022/12/19 09:13:16;;;;;;;13.80;10.57;;;;;;;;;;4950983;28;20184;-58
2022/12/19 09:15:42;;;;;;;11.60;9.13;;;;;;;;;;4964021;28;20836;-57
2022/12/19 09:18:08;;;;;;;13.27;8.83;;;;;;;;;;4949723;28;20850;-58
2022/12/19 09:20:34;;;;;;;15.13;10.27;;;;;;;;;;4965134;28;20238;-57
2022/12/19 09:23:00;;;;;;;15.90;10.53;;;;;;;;;;4964901;28;20439;-57
2022/12/19 09:25:26;;;;;;;13.30;9.87;;;;;;;;;;4963559;28;20194;-57
2022/12/19 09:27:52;;;;;;;14.83;9.97;;;;;;;;;;4968207;28;20992;-57
2022/12/19 09:30:25;;;;;;;13.43;10.20;;;;;;;;;;4966227;28;20491;-57
2022/12/19 09:32:51;;;;;;;16.13;9.70;;;;;;;;;;4964861;28;20439;-57
2022/12/19 09:35:17;;;;;;;13.27;9.23;;;;;;;;;;4965753;28;20242;-60
2022/12/19 09:37:43;;;;;;;15.23;9.53;;;;;;;;;;4965545;28;20497;-58
2022/12/19 09:40:12;;;;;;;12.53;9.83;;;;;;;;;;4968981;28;20824;-58
2022/12/19 09:43:02;;;;;;;13.07;9.47;;;;;;;;;;4966574;28;20450;-58
2022/12/19 09:45:57;;;;;;;13.87;9.20;;;;;;;;;;4954836;28;20506;-58
2022/12/19 09:48:24;;;;;;;13.97;9.43;;;;;;;;;;4922039;28;20787;-58
2022/12/19 09:50:53;;;;;;;14.03;9.37;;;;;;;;;;4964554;28;20218;-58
2022/12/19 09:53:27;;;;;;;14.90;9.50;;;;;;;;;;4963764;28;20445;-58
2022/12/19 09:55:53;;;;;;;14.07;10.70;;;;;;;;;;4951060;28;20543;-58
2022/12/19 09:58:26;;;;;;;13.37;9.60;;;;;;;;;;4961118;28;20208;-58
2022/12/19 10:00:55;;;;;;;13.50;10.37;;;;;;;;;;4962873;28;20266;-58
2022/12/19 10:03:43;;;;;;;11.40;8.77;;;;;;;;;;4965254;28;20455;-58
2022/12/19 10:06:19;;;;;;;16.00;9.97;;;;;;;;;;4959900;28;20825;-58
2022/12/19 10:08:46;;;;;;;12.63;8.83;;;;;;;;;;4958190;28;20188;-58
2022/12/19 10:11:12;;;;;;;13.30;8.87;;;;;;;;;;4959697;28;20474;-58
2022/12/19 10:13:49;;;;;;;10.77;8.77;;;;;;;;;;4960855;28;20438;-58
2022/12/19 10:16:40;;;;;;;15.43;9.83;;;;;;;;;;4967298;28;20314;-58
2022/12/19 10:19:08;;;;;;;12.93;9.30;;;;;;;;;;4944926;28;20203;-58
2022/12/19 10:21:41;;;;;;;15.37;9.73;;;;;;;;;;4963819;28;20498;-58
2022/12/19 10:24:25;;;;;;;15.13;9.50;;;;;;;;;;4958480;28;20195;-58
2022/12/19 10:26:53;;;;;;;13.27;9.93;;;;;;;;;;4961815;28;21110;-57
2022/12/19 10:29:19;;;;;;;14.90;10.50;;;;;;;;;;4953121;28;20802;-57
2022/12/19 10:31:54;;;;;;;14.13;9.93;;;;;;;;;;4964174;28;20215;-58
2022/12/19 10:34:21;;;;;;;13.10;9.50;;;;;;;;;;4967892;28;20239;-58
2022/12/19 10:36:54;;;;;;;11.87;9.73;;;;;;;;;;4966521;28;20167;-57
2022/12/19 10:39:38;;;;;;;14.07;10.53;;;;;;;;;;4947193;29;20187;-57
2022/12/19 10:42:14;;;;;;;16.57;11.53;;;;;;;;;;4946861;28;20188;-57
2022/12/19 10:44:42;;;;;;;12.23;9.17;;;;;;;;;;4960495;28;20318;-58
2022/12/19 10:47:13;;;;;;;14.37;10.60;;;;;;;;;;4967249;28;20180;-57
2022/12/19 10:49:39;;;;;;;17.03;10.33;;;;;;;;;;4950202;28;20208;-57
2022/12/19 10:52:07;;;;;;;14.63;10.40;;;;;;;;;;4965995;28;20611;-57
2022/12/19 10:54:36;;;;;;;18.37;10.77;;;;;;;;;;4967932;28;20612;-58
2022/12/19 10:57:21;;;;;;;13.93;10.40;;;;;;;;;;4967388;28;20596;-56
2022/12/19 10:59:56;;;;;;;15.73;10.37;;;;;;;;;;4967703;28;20175;-57
2022/12/19 11:02:34;;;;;;;14.17;10.40;;;;;;;;;;4965830;28;20175;-56
2022/12/19 11:05:00;;;;;;;11.87;8.87;;;;;;;;;;4966554;28;20400;-57
2022/12/19 11:07:26;;;;;;;12.63;9.53;;;;;;;;;;4965853;28;20235;-56
2022/12/19 11:09:52;;;;;;;14.43;9.53;;;;;;;;;;4961790;28;20200;-58
2022/12/19 11:12:19;;;;;;;14.17;10.50;;;;;;;;;;4965616;28;20386;-56
2022/12/19 11:14:52;;;;;;;15.77;10.00;;;;;;;;;;4966883;28;20229;-58
2022/12/19 11:17:26;;;;;;;15.80;10.07;;;;;;;;;;4966649;28;20259;-57
2022/12/19 11:19:52;;;;;;;11.93;9.77;;;;;;;;;;4958342;28;20194;-56
2022/12/19 11:22:22;;;;;;;15.17;9.80;;;;;;;;;;4953310;28;20183;-56
2022/12/19 11:24:50;;;;;;;13.63;9.83;;;;;;;;;;4984936;28;20206;-57
2022/12/19 11:27:30;;;;;;;13.33;10.30;;;;;;;;;;4986061;28;20198;-57
2022/12/19 11:29:57;;;;;;;14.00;9.83;;;;;;;;;;4986859;28;20293;-57
2022/12/19 11:32:32;;;;;;;14.40;10.20;;;;;;;;;;4975778;28;20195;-57
2022/12/19 11:35:03;;;;;;;13.97;10.23;;;;;;;;;;4959010;28;20179;-57
2022/12/19 11:37:29;;;;;;;17.33;10.10;;;;;;;;;;4963973;28;20810;-57
2022/12/19 11:39:58;;;;;;;16.23;10.03;;;;;;;;;;4965192;28;20176;-58
2022/12/19 11:42:56;;;;;;;14.10;10.33;;;;;;;;;;4966491;28;20191;-56
2022/12/19 11:45:40;;;;;;;14.73;9.43;;;;;;;;;;4928219;28;20231;-57
2022/12/19 11:48:27;;;;;;;14.03;9.43;;;;;;;;;;4984114;28;20563;-58
2022/12/19 11:51:12;;;;;;;14.20;10.70;;;;;;;;;;4945648;29;20216;-57
2022/12/19 11:53:41;;;;;;;11.97;8.77;;;;;;;;;;4953131;28;20180;-56
2022/12/19 11:56:11;;;;;;;12.80;9.13;;;;;;;;;;4965248;28;20222;-57
2022/12/19 11:58:37;;;;;;;13.50;9.60;;;;;;;;;;4965969;28;20499;-56
2022/12/19 12:01:10;;;;;;;13.63;10.27;;;;;;;;;;4966401;28;20200;-58
2022/12/19 12:03:40;;;;;;;13.77;9.57;;;;;;;;;;4963172;28;20184;-57
2022/12/19 12:06:16;;;;;;;14.27;10.50;;;;;;;;;;4965350;28;20187;-57
2022/12/19 12:08:55;;;;;;;13.57;10.23;;;;;;;;;;4965038;28;20195;-56
2022/12/19 12:11:26;;;;;;;14.43;10.13;;;;;;;;;;4962636;28;20222;-56
2022/12/19 12:14:03;;;;;;;14.17;9.53;;;;;;;;;;4966752;28;20164;-57
2022/12/19 12:16:35;;;;;;;13.60;9.17;;;;;;;;;;4948177;28;20420;-56
2022/12/19 12:19:19;;;;;;;13.50;9.07;;;;;;;;;;4969344;28;20247;-57
2022/12/19 12:21:48;;;;;;;11.53;9.00;;;;;;;;;;4970185;28;20180;-57
2022/12/19 12:24:24;;;;;;;13.93;9.60;;;;;;;;;;4966343;28;20580;-56
2022/12/19 12:27:04;;;;;;;14.13;8.50;;;;;;;;;;4962499;28;20188;-55
2022/12/19 12:29:32;;;;;;;13.13;8.97;;;;;;;;;;4967028;28;20188;-56
2022/12/19 12:32:04;;;;;;;13.20;9.70;;;;;;;;;;4962634;28;20227;-56
2022/12/19 12:34:33;;;;;;;12.37;9.57;;;;;;;;;;4968968;28;20646;-56
2022/12/19 12:37:02;;;;;;;10.60;8.20;;;;;;;;;;4968304;28;20628;-56
2022/12/19 12:39:31;;;;;;;16.77;10.23;;;;;;;;;;4967809;28;20181;-56
2022/12/19 12:42:16;;;;;;;11.43;8.47;;;;;;;;;;4958410;28;20247;-55
2022/12/19 12:44:43;;;;;;;14.67;8.43;;;;;;;;;;4951348;28;20242;-56
2022/12/19 12:47:21;;;;;;;13.47;8.67;;;;;;;;;;4965874;28;20190;-56
2022/12/19 12:50:01;;;;;;;10.80;8.00;;;;;;;;;;4968291;28;20258;-55
2022/12/19 12:52:36;;;;;;;12.90;9.00;;;;;;;;;;4958793;28;20208;-56
2022/12/19 12:55:04;;;;;;;10.87;7.87;;;;;;;;;;4968755;28;20187;-56
2022/12/19 12:57:35;;;;;;;11.37;8.23;;;;;;;;;;4967049;28;20191;-56
2022/12/19 13:00:20;;;;;;;11.67;7.80;;;;;;;;;;4968895;28;20215;-56
2022/12/19 13:02:50;;;;;;;9.67;7.57;;;;;;;;;;4961285;28;20226;-56
2022/12/19 13:05:24;;;;;;;11.23;7.93;;;;;;;;;;4955762;28;20191;-56
2022/12/19 13:07:54;;;;;;;11.40;7.80;;;;;;;;;;4957947;28;20190;-56
2022/12/19 13:10:23;;;;;;;8.17;7.10;;;;;;;;;;4957765;28;20204;-56
2022/12/19 13:12:58;;;;;;;12.93;7.50;;;;;;;;;;4963650;28;20180;-56
2022/12/19 13:15:27;;;;;;;11.60;7.87;;;;;;;;;;4966469;28;20589;-56
2022/12/19 13:17:53;;;;;;;8.57;6.97;;;;;;;;;;4967144;28;20208;-56
2022/12/19 13:20:28;;;;;;;11.13;7.70;;;;;;;;;;4969256;28;20326;-55
2022/12/19 13:22:57;;;;;;;10.87;7.13;;;;;;;;;;4963475;28;20722;-55
2022/12/19 13:25:26;;;;;;;9.63;7.20;;;;;;;;;;4968737;28;20187;-56
2022/12/19 13:27:57;;;;;;;8.07;6.63;;;;;;;;;;4963091;28;20200;-55
2022/12/19 13:30:23;;;;;;;10.50;7.43;;;;;;;;;;4968241;28;20322;-56
2022/12/19 13:32:49;;;;;;;8.77;6.90;;;;;;;;;;4957696;28;20288;-56
2022/12/19 13:35:15;;;;;;;10.37;7.13;;;;;;;;;;4967318;28;20179;-56
2022/12/19 13:37:50;;;;;;;10.60;7.17;;;;;;;;;;4959620;28;20289;-55
2022/12/19 13:40:23;;;;;;;8.77;7.20;;;;;;;;;;4950436;28;20678;-56
2022/12/19 13:45:52;;;;;;;10.77;7.20;;;;;;;;;;4966889;28;20767;-56
2022/12/19 13:48:24;;;;;;;9.17;6.13;;;;;;;;;;4967360;28;20199;-55
2022/12/19 13:50:50;;;;;;;9.33;6.40;;;;;;;;;;4967792;28;20718;-55
2022/12/19 13:53:17;;;;;;;8.60;6.43;;;;;;;;;;4965332;28;20195;-56
2022/12/19 13:55:44;;;;;;;9.27;6.50;;;;;;;;;;4966879;28;20183;-56
2022/12/19 13:58:42;;;;;;;10.87;6.73;;;;;;;;;;4964622;28;20667;-56
2022/12/19 14:01:13;;;;;;;10.07;6.80;;;;;;;;;;4914669;28;20184;-56
2022/12/19 14:03:42;;;;;;;8.03;6.33;;;;;;;;;;4963946;28;20188;-56
2022/12/19 14:06:18;;;;;;;8.80;7.00;;;;;;;;;;4964133;28;20184;-56
2022/12/19 14:08:45;;;;;;;8.63;6.37;;;;;;;;;;4966042;28;20183;-56
2022/12/19 14:11:13;;;;;;;9.03;6.27;;;;;;;;;;4973469;28;20697;-56
2022/12/19 14:16:29;;;;;;;7.63;6.00;;;;;;;;;;4967170;28;20361;-56
2022/12/19 14:18:55;;;;;;;9.30;6.40;;;;;;;;;;4961502;28;20208;-56
2022/12/19 14:21:23;;;;;;;9.30;7.80;;;;;;;;;;4959023;28;20192;-56
2022/12/19 14:23:49;;;;;;;9.93;6.83;;;;;;;;;;4959444;28;20323;-56
2022/12/19 14:26:25;;;;;;;7.60;6.03;;;;;;;;;;4962842;28;20191;-56
2022/12/19 14:29:14;;;;;;;7.00;5.67;;;;;;;;;;4958358;28;20664;-56
2022/12/19 14:31:47;;;;;;;6.67;5.97;;;;;;;;;;4954709;28;20318;-56
2022/12/19 14:34:19;;;;;;;7.53;6.50;;;;;;;;;;4948474;28;20167;-56
2022/12/19 14:36:55;;;;;;;7.93;5.97;;;;;;;;;;4955573;28;20188;-57
2022/12/19 14:39:23;;;;;;;7.07;5.90;;;;;;;;;;4945002;28;20183;-56
2022/12/19 14:44:46;;;;;;;9.23;6.43;;;;;;;;;;4965344;28;21627;-56
2022/12/19 14:47:20;;;;;;;11.43;5.90;;;;;;;;;;4966072;28;20191;-56
2022/12/19 14:49:46;;;;;;;6.60;5.60;;;;;;;;;;4966672;28;20211;-56
2022/12/19 14:52:30;;;;;;;7.53;6.20;;;;;;;;;;4961162;28;20338;-56